sensor_id;sensor_type;location;lat;lon;timestamp;P1;durP1;ratioP1;P2;durP2;ratioP2
7169;SDS011;3626;42.656;23.312;2022-12-29T00:00:06;56.30;;;26.20;;
7169;SDS011;3626;42.656;23.312;2022-12-29T00:00:13;55.23;;;26.55;;
7169;SDS011;3626;42.656;23.312;2022-12-29T00:00:19;55.90;;;26.88;;
7169;SDS011;3626;42.656;23.312;2022-12-29T00:00:25;55.53;;;27.02;;
7169;SDS011;3626;42.656;23.312;2022-12-29T00:00:32;56.32;;;27.38;;
7169;SDS011;3626;42.656;23.312;2022-12-29T00:00:37;57.22;;;27.75;;
7169;SDS011;3626;42.656;23.312;2022-12-29T00:00:43;57.53;;;28.10;;
7169;SDS011;3626;42.656;23.312;2022-12-29T00:00:49;57.70;;;28.27;;
7169;SDS011;3626;42.656;23.312;2022-12-29T00:00:54;58.55;;;28.67;;
7169;SDS011;3626;42.656;23.312;2022-12-29T00:01:00;58.90;;;28.73;;
7169;SDS011;3626;42.656;23.312;2022-12-29T00:01:06;57.83;;;28.33;;
7169;SDS011;3626;42.656;23.312;2022-12-29T00:01:12;59.63;;;28.50;;
7169;SDS011;3626;42.656;23.312;2022-12-29T00:01:17;61.00;;;28.80;;
7169;SDS011;3626;42.656;23.312;2022-12-29T00:01:23;61.00;;;28.73;;
7169;SDS011;3626;42.656;23.312;2022-12-29T00:01:29;60.38;;;28.83;;
7169;SDS011;3626;42.656;23.312;2022-12-29T00:01:36;60.35;;;28.90;;
7169;SDS011;3626;42.656;23.312;2022-12-29T00:01:42;60.63;;;28.53;;
7169;SDS011;3626;42.656;23.312;2022-12-29T00:01:48;61.78;;;28.45;;
7169;SDS011;3626;42.656;23.312;2022-12-29T00:01:53;62.85;;;28.75;;
7169;SDS011;3626;42.656;23.312;2022-12-29T00:02:00;62.87;;;28.63;;
7169;SDS011;3626;42.656;23.312;2022-12-29T00:02:07;62.78;;;28.60;;
7169;SDS011;3626;42.656;23.312;2022-12-29T00:02:13;61.90;;;28.77;;
7169;SDS011;3626;42.656;23.312;2022-12-29T00:02:20;60.56;;;28.60;;
7169;SDS011;3626;42.656;23.312;2022-12-29T00:02:25;60.53;;;28.58;;
7169;SDS011;3626;42.656;23.312;2022-12-29T00:02:31;60.15;;;28.10;;
7169;SDS011;3626;42.656;23.312;2022-12-29T00:02:37;61.22;;;27.92;;
7169;SDS011;3626;42.656;23.312;2022-12-29T00:02:43;60.43;;;27.83;;
7169;SDS011;3626;42.656;23.312;2022-12-29T00:02:48;59.28;;;28.05;;
7169;SDS011;3626;42.656;23.312;2022-12-29T00:02:54;58.35;;;27.95;;
7169;SDS011;3626;42.656;23.312;2022-12-29T00:03:00;57.95;;;27.63;;
7169;SDS011;3626;42.656;23.312;2022-12-29T00:03:06;58.30;;;27.57;;
7169;SDS011;3626;42.656;23.312;2022-12-29T00:03:11;56.40;;;27.08;;
7169;SDS011;3626;42.656;23.312;2022-12-29T00:03:17;55.75;;;26.90;;
7169;SDS011;3626;42.656;23.312;2022-12-29T00:03:23;54.70;;;26.50;;
7169;SDS011;3626;42.656;23.312;2022-12-29T00:03:29;55.37;;;26.53;;
7169;SDS011;3626;42.656;23.312;2022-12-29T00:03:34;55.20;;;27.15;;
7169;SDS011;3626;42.656;23.312;2022-12-29T00:03:40;52.70;;;27.38;;
7169;SDS011;3626;42.656;23.312;2022-12-29T00:03:47;53.10;;;27.20;;
7169;SDS011;3626;42.656;23.312;2022-12-29T00:03:53;53.73;;;26.93;;
7169;SDS011;3626;42.656;23.312;2022-12-29T00:03:59;52.60;;;26.87;;
7169;SDS011;3626;42.656;23.312;2022-12-29T00:04:05;52.65;;;27.25;;
7169;SDS011;3626;42.656;23.312;2022-12-29T00:04:11;54.02;;;27.66;;
7169;SDS011;3626;42.656;23.312;2022-12-29T00:04:18;53.93;;;27.63;;
7169;SDS011;3626;42.656;23.312;2022-12-29T00:04:24;54.75;;;27.88;;
7169;SDS011;3626;42.656;23.312;2022-12-29T00:04:30;54.55;;;27.58;;
7169;SDS011;3626;42.656;23.312;2022-12-29T00:04:36;54.55;;;27.10;;
7169;SDS011;3626;42.656;23.312;2022-12-29T00:04:42;55.33;;;27.20;;
7169;SDS011;3626;42.656;23.312;2022-12-29T00:04:49;54.73;;;27.23;;
7169;SDS011;3626;42.656;23.312;2022-12-29T00:04:55;54.30;;;27.43;;
7169;SDS011;3626;42.656;23.312;2022-12-29T00:05:02;53.36;;;27.22;;
7169;SDS011;3626;42.656;23.312;2022-12-29T00:05:08;51.77;;;26.90;;
7169;SDS011;3626;42.656;23.312;2022-12-29T00:05:14;50.95;;;26.85;;
7169;SDS011;3626;42.656;23.312;2022-12-29T00:05:19;50.70;;;26.90;;
7169;SDS011;3626;42.656;23.312;2022-12-29T00:05:25;50.38;;;27.00;;
7169;SDS011;3626;42.656;23.312;2022-12-29T00:05:31;49.55;;;27.00;;
7169;SDS011;3626;42.656;23.312;2022-12-29T00:05:37;49.40;;;27.05;;
7169;SDS011;3626;42.656;23.312;2022-12-29T00:05:42;49.90;;;27.03;;
7169;SDS011;3626;42.656;23.312;2022-12-29T00:05:53;49.67;;;27.15;;
7169;SDS011;3626;42.656;23.312;2022-12-29T00:05:59;50.50;;;27.77;;
7169;SDS011;3626;42.656;23.312;2022-12-29T00:06:06;51.44;;;27.92;;
7169;SDS011;3626;42.656;23.312;2022-12-29T00:06:11;52.10;;;27.80;;
7169;SDS011;3626;42.656;23.312;2022-12-29T00:06:17;53.25;;;27.70;;
7169;SDS011;3626;42.656;23.312;2022-12-29T00:06:24;53.85;;;27.55;;
7169;SDS011;3626;42.656;23.312;2022-12-29T00:06:32;54.61;;;27.91;;
7169;SDS011;3626;42.656;23.312;2022-12-29T00:06:37;54.50;;;27.90;;
7169;SDS011;3626;42.656;23.312;2022-12-29T00:06:43;53.90;;;27.70;;
7169;SDS011;3626;42.656;23.312;2022-12-29T00:06:50;53.23;;;27.10;;
7169;SDS011;3626;42.656;23.312;2022-12-29T00:06:57;53.32;;;26.80;;
7169;SDS011;3626;42.656;23.312;2022-12-29T00:07:03;53.60;;;26.65;;
7169;SDS011;3626;42.656;23.312;2022-12-29T00:07:09;54.10;;;26.50;;
7169;SDS011;3626;42.656;23.312;2022-12-29T00:07:15;55.03;;;26.60;;
7169;SDS011;3626;42.656;23.312;2022-12-29T00:07:21;54.30;;;26.38;;
7169;SDS011;3626;42.656;23.312;2022-12-29T00:07:27;54.65;;;26.20;;
7169;SDS011;3626;42.656;23.312;2022-12-29T00:07:32;55.08;;;26.08;;
7169;SDS011;3626;42.656;23.312;2022-12-29T00:07:38;55.40;;;26.17;;
7169;SDS011;3626;42.656;23.312;2022-12-29T00:07:44;56.65;;;26.38;;
7169;SDS011;3626;42.656;23.312;2022-12-29T00:07:51;58.87;;;26.57;;
7169;SDS011;3626;42.656;23.312;2022-12-29T00:07:56;58.42;;;26.30;;
7169;SDS011;3626;42.656;23.312;2022-12-29T00:08:02;58.23;;;26.40;;
7169;SDS011;3626;42.656;23.312;2022-12-29T00:08:08;57.70;;;26.35;;
7169;SDS011;3626;42.656;23.312;2022-12-29T00:08:14;57.38;;;26.20;;
7169;SDS011;3626;42.656;23.312;2022-12-29T00:08:19;58.63;;;26.70;;
7169;SDS011;3626;42.656;23.312;2022-12-29T00:08:44;58.46;;;26.76;;
7169;SDS011;3626;42.656;23.312;2022-12-29T00:08:49;57.95;;;26.77;;
7169;SDS011;3626;42.656;23.312;2022-12-29T00:08:55;58.78;;;27.13;;
7169;SDS011;3626;42.656;23.312;2022-12-29T00:09:01;59.27;;;27.10;;
7169;SDS011;3626;42.656;23.312;2022-12-29T00:09:07;59.67;;;26.92;;
7169;SDS011;3626;42.656;23.312;2022-12-29T00:09:13;58.20;;;26.83;;
7169;SDS011;3626;42.656;23.312;2022-12-29T00:09:20;56.10;;;26.38;;
7169;SDS011;3626;42.656;23.312;2022-12-29T00:09:26;55.72;;;26.40;;
7169;SDS011;3626;42.656;23.312;2022-12-29T00:09:33;55.30;;;26.67;;
7169;SDS011;3626;42.656;23.312;2022-12-29T00:09:40;55.30;;;26.52;;
7169;SDS011;3626;42.656;23.312;2022-12-29T00:09:45;54.00;;;26.33;;
7169;SDS011;3626;42.656;23.312;2022-12-29T00:09:51;52.42;;;25.90;;
7169;SDS011;3626;42.656;23.312;2022-12-29T00:09:57;51.90;;;25.87;;
7169;SDS011;3626;42.656;23.312;2022-12-29T00:10:03;50.17;;;25.50;;
7169;SDS011;3626;42.656;23.312;2022-12-29T00:10:09;50.02;;;25.68;;
7169;SDS011;3626;42.656;23.312;2022-12-29T00:10:15;51.33;;;25.98;;
7169;SDS011;3626;42.656;23.312;2022-12-29T00:10:21;49.90;;;25.57;;
7169;SDS011;3626;42.656;23.312;2022-12-29T00:10:28;49.20;;;25.30;;
7169;SDS011;3626;42.656;23.312;2022-12-29T00:10:33;47.85;;;24.85;;
7169;SDS011;3626;42.656;23.312;2022-12-29T00:10:39;47.55;;;25.05;;
7169;SDS011;3626;42.656;23.312;2022-12-29T00:10:45;48.53;;;25.50;;
7169;SDS011;3626;42.656;23.312;2022-12-29T00:10:50;50.50;;;25.75;;
7169;SDS011;3626;42.656;23.312;2022-12-29T00:10:56;51.58;;;25.70;;
7169;SDS011;3626;42.656;23.312;2022-12-29T00:11:02;52.47;;;25.92;;
7169;SDS011;3626;42.656;23.312;2022-12-29T00:11:08;52.53;;;26.03;;
7169;SDS011;3626;42.656;23.312;2022-12-29T00:11:16;53.70;;;26.13;;
7169;SDS011;3626;42.656;23.312;2022-12-29T00:11:23;54.60;;;26.67;;
7169;SDS011;3626;42.656;23.312;2022-12-29T00:11:30;56.37;;;26.97;;
7169;SDS011;3626;42.656;23.312;2022-12-29T00:11:36;57.90;;;27.27;;
7169;SDS011;3626;42.656;23.312;2022-12-29T00:11:42;58.07;;;27.10;;
7169;SDS011;3626;42.656;23.312;2022-12-29T00:11:48;57.78;;;27.05;;
7169;SDS011;3626;42.656;23.312;2022-12-29T00:11:55;56.43;;;27.30;;
7169;SDS011;3626;42.656;23.312;2022-12-29T00:12:02;56.10;;;27.20;;
7169;SDS011;3626;42.656;23.312;2022-12-29T00:12:09;56.20;;;27.30;;
7169;SDS011;3626;42.656;23.312;2022-12-29T00:12:14;55.97;;;27.20;;
7169;SDS011;3626;42.656;23.312;2022-12-29T00:12:20;56.00;;;27.00;;
7169;SDS011;3626;42.656;23.312;2022-12-29T00:12:26;55.90;;;26.83;;
7169;SDS011;3626;42.656;23.312;2022-12-29T00:12:52;53.78;;;26.44;;
7169;SDS011;3626;42.656;23.312;2022-12-29T00:13:16;52.80;;;26.27;;
7169;SDS011;3626;42.656;23.312;2022-12-29T00:13:40;53.03;;;26.06;;
7169;SDS011;3626;42.656;23.312;2022-12-29T00:14:04;54.35;;;25.20;;
7169;SDS011;3626;42.656;23.312;2022-12-29T00:14:43;54.44;;;25.24;;
7169;SDS011;3626;42.656;23.312;2022-12-29T00:15:07;54.44;;;26.17;;
7169;SDS011;3626;42.656;23.312;2022-12-29T00:15:31;52.49;;;26.20;;
7169;SDS011;3626;42.656;23.312;2022-12-29T00:15:43;51.44;;;26.30;;
7169;SDS011;3626;42.656;23.312;2022-12-29T00:15:48;51.72;;;26.80;;
7169;SDS011;3626;42.656;23.312;2022-12-29T00:15:54;51.80;;;26.90;;
7169;SDS011;3626;42.656;23.312;2022-12-29T00:16:01;53.48;;;26.98;;
7169;SDS011;3626;42.656;23.312;2022-12-29T00:16:06;54.72;;;27.05;;
7169;SDS011;3626;42.656;23.312;2022-12-29T00:16:12;54.00;;;26.90;;
7169;SDS011;3626;42.656;23.312;2022-12-29T00:16:18;53.25;;;26.55;;
7169;SDS011;3626;42.656;23.312;2022-12-29T00:16:24;49.93;;;25.80;;
7169;SDS011;3626;42.656;23.312;2022-12-29T00:16:32;50.10;;;25.60;;
7169;SDS011;3626;42.656;23.312;2022-12-29T00:16:40;50.04;;;25.49;;
7169;SDS011;3626;42.656;23.312;2022-12-29T00:16:47;50.63;;;25.03;;
7169;SDS011;3626;42.656;23.312;2022-12-29T00:16:52;50.50;;;24.98;;
7169;SDS011;3626;42.656;23.312;2022-12-29T00:16:58;49.47;;;24.63;;
7169;SDS011;3626;42.656;23.312;2022-12-29T00:17:04;46.55;;;24.80;;
7169;SDS011;3626;42.656;23.312;2022-12-29T00:17:11;47.10;;;25.00;;
7169;SDS011;3626;42.656;23.312;2022-12-29T00:17:17;48.80;;;25.53;;
7169;SDS011;3626;42.656;23.312;2022-12-29T00:17:22;50.15;;;25.95;;
7169;SDS011;3626;42.656;23.312;2022-12-29T00:17:28;51.63;;;26.67;;
7169;SDS011;3626;42.656;23.312;2022-12-29T00:17:34;52.20;;;27.00;;
7169;SDS011;3626;42.656;23.312;2022-12-29T00:17:40;51.45;;;27.17;;
7169;SDS011;3626;42.656;23.312;2022-12-29T00:17:46;50.63;;;27.10;;
7169;SDS011;3626;42.656;23.312;2022-12-29T00:17:52;50.45;;;26.90;;
7169;SDS011;3626;42.656;23.312;2022-12-29T00:17:57;51.25;;;27.20;;
7169;SDS011;3626;42.656;23.312;2022-12-29T00:18:03;53.78;;;27.20;;
7169;SDS011;3626;42.656;23.312;2022-12-29T00:18:09;53.97;;;26.90;;
7169;SDS011;3626;42.656;23.312;2022-12-29T00:18:15;53.47;;;26.38;;
7169;SDS011;3626;42.656;23.312;2022-12-29T00:18:20;53.05;;;26.00;;
7169;SDS011;3626;42.656;23.312;2022-12-29T00:18:26;56.20;;;25.88;;
7169;SDS011;3626;42.656;23.312;2022-12-29T00:18:32;56.28;;;25.80;;
7169;SDS011;3626;42.656;23.312;2022-12-29T00:18:38;55.80;;;25.53;;
7169;SDS011;3626;42.656;23.312;2022-12-29T00:18:44;57.17;;;25.63;;
7169;SDS011;3626;42.656;23.312;2022-12-29T00:18:50;58.16;;;26.04;;
7169;SDS011;3626;42.656;23.312;2022-12-29T00:18:56;59.05;;;26.50;;
7169;SDS011;3626;42.656;23.312;2022-12-29T00:19:03;57.92;;;26.60;;
7169;SDS011;3626;42.656;23.312;2022-12-29T00:19:09;56.77;;;26.60;;
7169;SDS011;3626;42.656;23.312;2022-12-29T00:19:31;56.20;;;27.48;;
7169;SDS011;3626;42.656;23.312;2022-12-29T00:19:55;55.28;;;28.42;;
7169;SDS011;3626;42.656;23.312;2022-12-29T00:20:20;58.11;;;29.09;;
7169;SDS011;3626;42.656;23.312;2022-12-29T00:20:44;62.42;;;30.33;;
7169;SDS011;3626;42.656;23.312;2022-12-29T00:21:08;63.86;;;30.64;;
7169;SDS011;3626;42.656;23.312;2022-12-29T00:21:38;63.30;;;30.34;;
7169;SDS011;3626;42.656;23.312;2022-12-29T00:22:02;63.92;;;30.45;;
7169;SDS011;3626;42.656;23.312;2022-12-29T00:22:26;61.15;;;30.77;;
7169;SDS011;3626;42.656;23.312;2022-12-29T00:22:50;60.97;;;31.38;;
7169;SDS011;3626;42.656;23.312;2022-12-29T00:23:14;60.21;;;30.45;;
7169;SDS011;3626;42.656;23.312;2022-12-29T00:23:38;58.04;;;29.26;;
7169;SDS011;3626;42.656;23.312;2022-12-29T00:24:03;53.79;;;27.90;;
7169;SDS011;3626;42.656;23.312;2022-12-29T00:24:27;54.13;;;27.52;;
7169;SDS011;3626;42.656;23.312;2022-12-29T00:24:51;54.54;;;26.77;;
7169;SDS011;3626;42.656;23.312;2022-12-29T00:25:27;51.97;;;25.66;;
7169;SDS011;3626;42.656;23.312;2022-12-29T00:25:50;49.31;;;25.69;;
7169;SDS011;3626;42.656;23.312;2022-12-29T00:26:15;53.11;;;26.81;;
7169;SDS011;3626;42.656;23.312;2022-12-29T00:26:40;56.66;;;27.19;;
7169;SDS011;3626;42.656;23.312;2022-12-29T00:27:09;57.36;;;27.31;;
7169;SDS011;3626;42.656;23.312;2022-12-29T00:27:35;55.53;;;27.02;;
7169;SDS011;3626;42.656;23.312;2022-12-29T00:27:59;50.67;;;25.75;;
7169;SDS011;3626;42.656;23.312;2022-12-29T00:28:23;49.85;;;25.36;;
7169;SDS011;3626;42.656;23.312;2022-12-29T00:28:48;51.89;;;25.81;;
7169;SDS011;3626;42.656;23.312;2022-12-29T00:29:14;52.08;;;25.58;;
7169;SDS011;3626;42.656;23.312;2022-12-29T00:29:38;51.89;;;25.49;;
7169;SDS011;3626;42.656;23.312;2022-12-29T00:30:02;53.39;;;25.92;;
7169;SDS011;3626;42.656;23.312;2022-12-29T00:30:31;53.75;;;26.60;;
7169;SDS011;3626;42.656;23.312;2022-12-29T00:30:58;51.81;;;26.45;;
7169;SDS011;3626;42.656;23.312;2022-12-29T00:31:22;50.60;;;25.92;;
7169;SDS011;3626;42.656;23.312;2022-12-29T00:31:46;47.99;;;24.98;;
7169;SDS011;3626;42.656;23.312;2022-12-29T00:32:10;47.51;;;24.95;;
7169;SDS011;3626;42.656;23.312;2022-12-29T00:32:35;50.72;;;25.92;;
7169;SDS011;3626;42.656;23.312;2022-12-29T00:32:59;54.92;;;26.76;;
7169;SDS011;3626;42.656;23.312;2022-12-29T00:33:25;54.83;;;26.45;;
7169;SDS011;3626;42.656;23.312;2022-12-29T00:33:51;51.47;;;25.83;;
7169;SDS011;3626;42.656;23.312;2022-12-29T00:34:15;49.95;;;26.09;;
7169;SDS011;3626;42.656;23.312;2022-12-29T00:34:39;51.96;;;26.89;;
7169;SDS011;3626;42.656;23.312;2022-12-29T00:35:04;53.35;;;26.83;;
7169;SDS011;3626;42.656;23.312;2022-12-29T00:35:19;52.15;;;26.25;;
7169;SDS011;3626;42.656;23.312;2022-12-29T00:35:31;51.96;;;26.01;;
7169;SDS011;3626;42.656;23.312;2022-12-29T00:35:44;51.63;;;25.85;;
7169;SDS011;3626;42.656;23.312;2022-12-29T00:35:56;53.51;;;26.25;;
7169;SDS011;3626;42.656;23.312;2022-12-29T00:36:06;55.65;;;26.89;;
7169;SDS011;3626;42.656;23.312;2022-12-29T00:36:18;57.88;;;27.19;;
7169;SDS011;3626;42.656;23.312;2022-12-29T00:36:28;57.38;;;27.17;;
7169;SDS011;3626;42.656;23.312;2022-12-29T00:36:40;57.26;;;27.29;;
7169;SDS011;3626;42.656;23.312;2022-12-29T00:36:48;55.40;;;27.00;;
7169;SDS011;3626;42.656;23.312;2022-12-29T00:36:54;54.73;;;26.87;;
7169;SDS011;3626;42.656;23.312;2022-12-29T00:37:00;53.58;;;26.80;;
7169;SDS011;3626;42.656;23.312;2022-12-29T00:37:06;52.97;;;26.65;;
7169;SDS011;3626;42.656;23.312;2022-12-29T00:37:11;49.95;;;26.08;;
7169;SDS011;3626;42.656;23.312;2022-12-29T00:37:17;49.38;;;25.98;;
7169;SDS011;3626;42.656;23.312;2022-12-29T00:37:46;50.36;;;25.70;;
7169;SDS011;3626;42.656;23.312;2022-12-29T00:38:11;52.35;;;25.79;;
7169;SDS011;3626;42.656;23.312;2022-12-29T00:38:37;53.17;;;26.10;;
7169;SDS011;3626;42.656;23.312;2022-12-29T00:39:06;50.80;;;26.24;;
7169;SDS011;3626;42.656;23.312;2022-12-29T00:39:34;49.71;;;25.89;;
7169;SDS011;3626;42.656;23.312;2022-12-29T00:39:58;51.44;;;26.41;;
7169;SDS011;3626;42.656;23.312;2022-12-29T00:40:22;56.46;;;27.23;;
7169;SDS011;3626;42.656;23.312;2022-12-29T00:40:46;58.97;;;27.09;;
7169;SDS011;3626;42.656;23.312;2022-12-29T00:41:10;56.99;;;26.30;;
7169;SDS011;3626;42.656;23.312;2022-12-29T00:41:34;53.19;;;26.38;;
7169;SDS011;3626;42.656;23.312;2022-12-29T00:42:02;54.26;;;27.17;;
7169;SDS011;3626;42.656;23.312;2022-12-29T00:42:27;56.00;;;26.99;;
7169;SDS011;3626;42.656;23.312;2022-12-29T00:42:51;57.14;;;25.52;;
7169;SDS011;3626;42.656;23.312;2022-12-29T00:43:15;55.11;;;25.09;;
7169;SDS011;3626;42.656;23.312;2022-12-29T00:43:39;51.28;;;25.38;;
7169;SDS011;3626;42.656;23.312;2022-12-29T00:44:03;50.34;;;25.85;;
7169;SDS011;3626;42.656;23.312;2022-12-29T00:44:12;53.86;;;26.12;;
7169;SDS011;3626;42.656;23.312;2022-12-29T00:44:18;57.42;;;26.45;;
7169;SDS011;3626;42.656;23.312;2022-12-29T00:44:24;58.03;;;26.67;;
7169;SDS011;3626;42.656;23.312;2022-12-29T00:44:30;58.42;;;26.77;;
7169;SDS011;3626;42.656;23.312;2022-12-29T00:44:36;58.47;;;27.10;;
7169;SDS011;3626;42.656;23.312;2022-12-29T00:44:41;59.38;;;27.35;;
7169;SDS011;3626;42.656;23.312;2022-12-29T00:44:47;59.30;;;27.47;;
7169;SDS011;3626;42.656;23.312;2022-12-29T00:44:53;59.08;;;27.60;;
7169;SDS011;3626;42.656;23.312;2022-12-29T00:44:58;60.72;;;27.77;;
7169;SDS011;3626;42.656;23.312;2022-12-29T00:45:05;60.33;;;27.83;;
7169;SDS011;3626;42.656;23.312;2022-12-29T00:45:12;58.37;;;27.73;;
7169;SDS011;3626;42.656;23.312;2022-12-29T00:45:18;57.75;;;27.77;;
7169;SDS011;3626;42.656;23.312;2022-12-29T00:45:23;57.78;;;27.73;;
7169;SDS011;3626;42.656;23.312;2022-12-29T00:45:29;58.83;;;27.97;;
7169;SDS011;3626;42.656;23.312;2022-12-29T00:45:35;57.78;;;27.70;;
7169;SDS011;3626;42.656;23.312;2022-12-29T00:45:40;56.95;;;27.45;;
7169;SDS011;3626;42.656;23.312;2022-12-29T00:45:46;57.45;;;27.35;;
7169;SDS011;3626;42.656;23.312;2022-12-29T00:45:52;56.35;;;27.08;;
7169;SDS011;3626;42.656;23.312;2022-12-29T00:45:58;56.57;;;27.00;;
7169;SDS011;3626;42.656;23.312;2022-12-29T00:46:03;57.20;;;27.13;;
7169;SDS011;3626;42.656;23.312;2022-12-29T00:46:09;59.03;;;27.70;;
7169;SDS011;3626;42.656;23.312;2022-12-29T00:46:15;58.83;;;27.80;;
7169;SDS011;3626;42.656;23.312;2022-12-29T00:46:21;59.25;;;28.02;;
7169;SDS011;3626;42.656;23.312;2022-12-29T00:46:26;59.47;;;28.05;;
7169;SDS011;3626;42.656;23.312;2022-12-29T00:46:32;59.55;;;28.02;;
7169;SDS011;3626;42.656;23.312;2022-12-29T00:46:39;60.25;;;28.50;;
7169;SDS011;3626;42.656;23.312;2022-12-29T00:46:46;62.23;;;29.37;;
7169;SDS011;3626;42.656;23.312;2022-12-29T00:46:53;64.50;;;29.77;;
7169;SDS011;3626;42.656;23.312;2022-12-29T00:46:59;62.78;;;29.63;;
7169;SDS011;3626;42.656;23.312;2022-12-29T00:47:08;63.91;;;29.61;;
7169;SDS011;3626;42.656;23.312;2022-12-29T00:47:13;65.60;;;29.67;;
7169;SDS011;3626;42.656;23.312;2022-12-29T00:47:19;65.53;;;29.73;;
7169;SDS011;3626;42.656;23.312;2022-12-29T00:47:25;65.22;;;29.70;;
7169;SDS011;3626;42.656;23.312;2022-12-29T00:47:31;65.00;;;29.80;;
7169;SDS011;3626;42.656;23.312;2022-12-29T00:47:36;64.60;;;29.40;;
7169;SDS011;3626;42.656;23.312;2022-12-29T00:47:42;65.15;;;29.38;;
7169;SDS011;3626;42.656;23.312;2022-12-29T00:47:48;64.70;;;29.10;;
7169;SDS011;3626;42.656;23.312;2022-12-29T00:47:54;65.23;;;29.17;;
7169;SDS011;3626;42.656;23.312;2022-12-29T00:47:59;66.90;;;29.30;;
7169;SDS011;3626;42.656;23.312;2022-12-29T00:48:05;65.80;;;28.90;;
7169;SDS011;3626;42.656;23.312;2022-12-29T00:48:11;63.50;;;28.93;;
7169;SDS011;3626;42.656;23.312;2022-12-29T00:48:17;62.88;;;28.90;;
7169;SDS011;3626;42.656;23.312;2022-12-29T00:48:42;63.83;;;29.11;;
7169;SDS011;3626;42.656;23.312;2022-12-29T00:49:07;61.67;;;28.84;;
7169;SDS011;3626;42.656;23.312;2022-12-29T00:49:32;59.19;;;28.29;;
7169;SDS011;3626;42.656;23.312;2022-12-29T00:49:38;60.25;;;28.65;;
7169;SDS011;3626;42.656;23.312;2022-12-29T00:49:44;60.85;;;28.75;;
7169;SDS011;3626;42.656;23.312;2022-12-29T00:49:50;61.25;;;28.92;;
7169;SDS011;3626;42.656;23.312;2022-12-29T00:49:56;61.60;;;29.00;;
7169;SDS011;3626;42.656;23.312;2022-12-29T00:50:02;63.15;;;29.25;;
7169;SDS011;3626;42.656;23.312;2022-12-29T00:50:09;62.62;;;29.58;;
7169;SDS011;3626;42.656;23.312;2022-12-29T00:50:14;62.47;;;29.80;;
7169;SDS011;3626;42.656;23.312;2022-12-29T00:50:20;60.95;;;29.60;;
7169;SDS011;3626;42.656;23.312;2022-12-29T00:50:26;60.20;;;29.23;;
7169;SDS011;3626;42.656;23.312;2022-12-29T00:50:32;59.90;;;28.92;;
7169;SDS011;3626;42.656;23.312;2022-12-29T00:50:37;61.33;;;28.67;;
7169;SDS011;3626;42.656;23.312;2022-12-29T00:50:43;62.25;;;28.52;;
7169;SDS011;3626;42.656;23.312;2022-12-29T00:50:49;61.33;;;28.17;;
7169;SDS011;3626;42.656;23.312;2022-12-29T00:50:55;61.35;;;28.15;;
7169;SDS011;3626;42.656;23.312;2022-12-29T00:51:01;60.15;;;27.80;;
7169;SDS011;3626;42.656;23.312;2022-12-29T00:51:06;63.92;;;28.15;;
7169;SDS011;3626;42.656;23.312;2022-12-29T00:51:12;63.20;;;28.00;;
7169;SDS011;3626;42.656;23.312;2022-12-29T00:51:18;63.33;;;28.00;;
7169;SDS011;3626;42.656;23.312;2022-12-29T00:51:24;63.55;;;28.00;;
7169;SDS011;3626;42.656;23.312;2022-12-29T00:51:30;63.85;;;27.90;;
7169;SDS011;3626;42.656;23.312;2022-12-29T00:51:35;62.10;;;28.10;;
7169;SDS011;3626;42.656;23.312;2022-12-29T00:51:42;61.60;;;28.25;;
7169;SDS011;3626;42.656;23.312;2022-12-29T00:51:48;62.50;;;28.38;;
7169;SDS011;3626;42.656;23.312;2022-12-29T00:51:55;64.70;;;28.44;;
7169;SDS011;3626;42.656;23.312;2022-12-29T00:52:03;65.25;;;28.53;;
7169;SDS011;3626;42.656;23.312;2022-12-29T00:52:12;61.57;;;27.89;;
7169;SDS011;3626;42.656;23.312;2022-12-29T00:52:18;63.73;;;28.10;;
7169;SDS011;3626;42.656;23.312;2022-12-29T00:52:24;63.67;;;27.98;;
7169;SDS011;3626;42.656;23.312;2022-12-29T00:52:29;64.23;;;28.17;;
7169;SDS011;3626;42.656;23.312;2022-12-29T00:52:35;65.30;;;28.25;;
7169;SDS011;3626;42.656;23.312;2022-12-29T00:52:41;64.03;;;28.20;;
7169;SDS011;3626;42.656;23.312;2022-12-29T00:52:46;63.67;;;28.00;;
7169;SDS011;3626;42.656;23.312;2022-12-29T00:52:52;61.23;;;27.77;;
7169;SDS011;3626;42.656;23.312;2022-12-29T00:52:58;60.95;;;27.63;;
7169;SDS011;3626;42.656;23.312;2022-12-29T00:53:04;59.92;;;27.40;;
7169;SDS011;3626;42.656;23.312;2022-12-29T00:53:09;59.55;;;27.42;;
7169;SDS011;3626;42.656;23.312;2022-12-29T00:53:15;59.13;;;27.37;;
7169;SDS011;3626;42.656;23.312;2022-12-29T00:53:21;56.67;;;26.88;;
7169;SDS011;3626;42.656;23.312;2022-12-29T00:53:26;56.03;;;26.80;;
7169;SDS011;3626;42.656;23.312;2022-12-29T00:53:32;54.25;;;26.73;;
7169;SDS011;3626;42.656;23.312;2022-12-29T00:53:38;53.63;;;26.47;;
7169;SDS011;3626;42.656;23.312;2022-12-29T00:53:44;51.90;;;26.23;;
7169;SDS011;3626;42.656;23.312;2022-12-29T00:53:50;51.28;;;26.38;;
7169;SDS011;3626;42.656;23.312;2022-12-29T00:53:55;51.58;;;26.67;;
7169;SDS011;3626;42.656;23.312;2022-12-29T00:54:02;51.16;;;26.54;;
7169;SDS011;3626;42.656;23.312;2022-12-29T00:54:08;51.90;;;26.40;;
7169;SDS011;3626;42.656;23.312;2022-12-29T00:54:14;52.50;;;26.42;;
7169;SDS011;3626;42.656;23.312;2022-12-29T00:54:21;53.57;;;26.90;;
7169;SDS011;3626;42.656;23.312;2022-12-29T00:54:27;54.03;;;26.97;;
7169;SDS011;3626;42.656;23.312;2022-12-29T00:54:34;55.34;;;26.90;;
7169;SDS011;3626;42.656;23.312;2022-12-29T00:54:41;54.38;;;26.68;;
7169;SDS011;3626;42.656;23.312;2022-12-29T00:54:49;54.77;;;26.73;;
7169;SDS011;3626;42.656;23.312;2022-12-29T00:54:56;53.87;;;26.23;;
7169;SDS011;3626;42.656;23.312;2022-12-29T00:55:02;53.97;;;26.53;;
7169;SDS011;3626;42.656;23.312;2022-12-29T00:55:08;53.65;;;26.55;;
7169;SDS011;3626;42.656;23.312;2022-12-29T00:55:14;52.25;;;26.65;;
7169;SDS011;3626;42.656;23.312;2022-12-29T00:55:19;52.08;;;26.70;;
7169;SDS011;3626;42.656;23.312;2022-12-29T00:55:26;52.90;;;27.15;;
7169;SDS011;3626;42.656;23.312;2022-12-29T00:55:34;53.15;;;27.52;;
7169;SDS011;3626;42.656;23.312;2022-12-29T00:55:41;53.66;;;27.64;;
7169;SDS011;3626;42.656;23.312;2022-12-29T00:55:47;53.88;;;27.60;;
7169;SDS011;3626;42.656;23.312;2022-12-29T00:55:53;54.80;;;27.85;;
7169;SDS011;3626;42.656;23.312;2022-12-29T00:55:59;55.30;;;28.00;;
7169;SDS011;3626;42.656;23.312;2022-12-29T00:56:05;56.00;;;28.15;;
7169;SDS011;3626;42.656;23.312;2022-12-29T00:56:11;56.80;;;28.30;;
7169;SDS011;3626;42.656;23.312;2022-12-29T00:56:16;58.95;;;28.40;;
7169;SDS011;3626;42.656;23.312;2022-12-29T00:56:22;58.05;;;27.95;;
7169;SDS011;3626;42.656;23.312;2022-12-29T00:56:28;56.73;;;27.57;;
7169;SDS011;3626;42.656;23.312;2022-12-29T00:56:34;56.20;;;27.40;;
7169;SDS011;3626;42.656;23.312;2022-12-29T00:56:40;56.42;;;27.40;;
7169;SDS011;3626;42.656;23.312;2022-12-29T00:56:46;57.78;;;27.83;;
7169;SDS011;3626;42.656;23.312;2022-12-29T00:56:52;57.23;;;27.70;;
7169;SDS011;3626;42.656;23.312;2022-12-29T00:56:58;56.90;;;27.60;;
7169;SDS011;3626;42.656;23.312;2022-12-29T00:57:04;55.65;;;27.38;;
7169;SDS011;3626;42.656;23.312;2022-12-29T00:57:11;55.17;;;27.20;;
7169;SDS011;3626;42.656;23.312;2022-12-29T00:57:17;53.85;;;26.98;;
7169;SDS011;3626;42.656;23.312;2022-12-29T00:57:23;54.47;;;26.90;;
7169;SDS011;3626;42.656;23.312;2022-12-29T00:57:29;57.28;;;27.08;;
7169;SDS011;3626;42.656;23.312;2022-12-29T00:57:35;58.43;;;27.00;;
7169;SDS011;3626;42.656;23.312;2022-12-29T00:57:41;57.10;;;27.07;;
7169;SDS011;3626;42.656;23.312;2022-12-29T00:57:47;56.22;;;26.73;;
7169;SDS011;3626;42.656;23.312;2022-12-29T00:57:53;56.15;;;26.70;;